sensor_id;sensor_type;location;lat;lon;timestamp;temperature;humidity
49373;DHT22;44113;38.408;-122.974;2022-11-11T00:01:10;27.90;39.30
49373;DHT22;44113;38.408;-122.974;2022-11-11T00:03:37;27.90;39.40
49373;DHT22;44113;38.408;-122.974;2022-11-11T00:06:12;27.80;39.50
49373;DHT22;44113;38.408;-122.974;2022-11-11T00:08:39;27.80;39.60
49373;DHT22;44113;38.408;-122.974;2022-11-11T00:11:11;27.80;39.70
49373;DHT22;44113;38.408;-122.974;2022-11-11T00:13:39;27.70;39.70
49373;DHT22;44113;38.408;-122.974;2022-11-11T00:16:16;27.60;39.80
49373;DHT22;44113;38.408;-122.974;2022-11-11T00:18:44;27.50;40.10
49373;DHT22;44113;38.408;-122.974;2022-11-11T00:21:29;27.50;40.00
49373;DHT22;44113;38.408;-122.974;2022-11-11T00:24:27;27.40;40.20
49373;DHT22;44113;38.408;-122.974;2022-11-11T00:27:12;27.30;40.30
49373;DHT22;44113;38.408;-122.974;2022-11-11T00:29:39;27.30;40.30
49373;DHT22;44113;38.408;-122.974;2022-11-11T00:32:07;27.30;40.40
49373;DHT22;44113;38.408;-122.974;2022-11-11T00:34:53;27.20;40.40
49373;DHT22;44113;38.408;-122.974;2022-11-11T00:37:41;27.10;40.50
49373;DHT22;44113;38.408;-122.974;2022-11-11T00:40:08;27.00;40.50
49373;DHT22;44113;38.408;-122.974;2022-11-11T00:42:35;27.00;40.60
49373;DHT22;44113;38.408;-122.974;2022-11-11T00:45:02;26.90;40.70
49373;DHT22;44113;38.408;-122.974;2022-11-11T00:47:30;26.90;40.80
49373;DHT22;44113;38.408;-122.974;2022-11-11T00:50:21;26.80;40.80
49373;DHT22;44113;38.408;-122.974;2022-11-11T00:53:10;26.70;41.00
49373;DHT22;44113;38.408;-122.974;2022-11-11T00:55:37;26.60;41.00
49373;DHT22;44113;38.408;-122.974;2022-11-11T00:58:04;26.60;41.10
49373;DHT22;44113;38.408;-122.974;2022-11-11T01:00:31;26.50;41.10
49373;DHT22;44113;38.408;-122.974;2022-11-11T01:02:58;26.50;41.20
49373;DHT22;44113;38.408;-122.974;2022-11-11T01:05:24;26.40;41.20
49373;DHT22;44113;38.408;-122.974;2022-11-11T01:07:53;26.30;41.30
49373;DHT22;44113;38.408;-122.974;2022-11-11T01:10:20;26.30;41.40
49373;DHT22;44113;38.408;-122.974;2022-11-11T01:13:17;26.20;41.40
49373;DHT22;44113;38.408;-122.974;2022-11-11T01:15:48;26.20;41.60
49373;DHT22;44113;38.408;-122.974;2022-11-11T01:18:23;26.10;41.60
49373;DHT22;44113;38.408;-122.974;2022-11-11T01:21:11;26.00;41.70
49373;DHT22;44113;38.408;-122.974;2022-11-11T01:23:40;25.90;41.70
49373;DHT22;44113;38.408;-122.974;2022-11-11T01:26:26;25.90;41.90
49373;DHT22;44113;38.408;-122.974;2022-11-11T01:28:55;25.80;41.90
49373;DHT22;44113;38.408;-122.974;2022-11-11T01:31:24;25.70;42.10
49373;DHT22;44113;38.408;-122.974;2022-11-11T01:33:51;25.70;42.10
49373;DHT22;44113;38.408;-122.974;2022-11-11T01:36:21;25.60;42.20
49373;DHT22;44113;38.408;-122.974;2022-11-11T01:38:50;25.50;42.30
49373;DHT22;44113;38.408;-122.974;2022-11-11T01:41:21;25.50;42.40
49373;DHT22;44113;38.408;-122.974;2022-11-11T01:49:40;25.20;42.60
49373;DHT22;44113;38.408;-122.974;2022-11-11T01:52:29;25.20;42.70
49373;DHT22;44113;38.408;-122.974;2022-11-11T01:55:20;25.10;42.70
49373;DHT22;44113;38.408;-122.974;2022-11-11T01:57:53;25.00;42.80
49373;DHT22;44113;38.408;-122.974;2022-11-11T02:00:22;25.00;42.90
49373;DHT22;44113;38.408;-122.974;2022-11-11T02:02:58;24.90;43.70
49373;DHT22;44113;38.408;-122.974;2022-11-11T02:05:27;24.80;43.10
49373;DHT22;44113;38.408;-122.974;2022-11-11T02:08:20;24.80;43.20
49373;DHT22;44113;38.408;-122.974;2022-11-11T02:11:17;24.70;43.50
49373;DHT22;44113;38.408;-122.974;2022-11-11T02:14:05;24.70;43.90
49373;DHT22;44113;38.408;-122.974;2022-11-11T02:16:50;24.60;44.00
49373;DHT22;44113;38.408;-122.974;2022-11-11T02:19:25;24.50;44.10
49373;DHT22;44113;38.408;-122.974;2022-11-11T02:22:00;24.50;44.30
49373;DHT22;44113;38.408;-122.974;2022-11-11T02:24:29;24.50;44.40
49373;DHT22;44113;38.408;-122.974;2022-11-11T02:26:57;24.40;44.40
49373;DHT22;44113;38.408;-122.974;2022-11-11T02:29:25;24.40;44.50
49373;DHT22;44113;38.408;-122.974;2022-11-11T02:31:52;24.40;44.50
49373;DHT22;44113;38.408;-122.974;2022-11-11T02:34:19;24.30;44.60
49373;DHT22;44113;38.408;-122.974;2022-11-11T02:36:46;24.30;44.60
49373;DHT22;44113;38.408;-122.974;2022-11-11T02:39:12;24.20;44.70
49373;DHT22;44113;38.408;-122.974;2022-11-11T02:41:43;24.10;44.80
49373;DHT22;44113;38.408;-122.974;2022-11-11T02:44:25;24.10;44.90
49373;DHT22;44113;38.408;-122.974;2022-11-11T02:46:52;24.00;45.10
49373;DHT22;44113;38.408;-122.974;2022-11-11T02:49:19;24.00;45.10
49373;DHT22;44113;38.408;-122.974;2022-11-11T02:51:45;24.00;45.30
49373;DHT22;44113;38.408;-122.974;2022-11-11T02:54:13;23.90;45.50
49373;DHT22;44113;38.408;-122.974;2022-11-11T02:56:39;23.90;45.50
49373;DHT22;44113;38.408;-122.974;2022-11-11T02:59:25;23.80;45.30
49373;DHT22;44113;38.408;-122.974;2022-11-11T03:01:51;23.80;45.40
49373;DHT22;44113;38.408;-122.974;2022-11-11T03:04:18;23.80;45.40
49373;DHT22;44113;38.408;-122.974;2022-11-11T03:06:45;23.80;45.60
49373;DHT22;44113;38.408;-122.974;2022-11-11T03:09:12;23.70;45.70
49373;DHT22;44113;38.408;-122.974;2022-11-11T03:11:38;23.60;45.60
49373;DHT22;44113;38.408;-122.974;2022-11-11T03:14:06;23.60;45.90
49373;DHT22;44113;38.408;-122.974;2022-11-11T03:16:33;23.50;46.10
49373;DHT22;44113;38.408;-122.974;2022-11-11T03:19:18;23.50;46.00
49373;DHT22;44113;38.408;-122.974;2022-11-11T03:21:46;23.40;45.90
49373;DHT22;44113;38.408;-122.974;2022-11-11T03:24:12;23.40;45.90
49373;DHT22;44113;38.408;-122.974;2022-11-11T03:26:39;23.40;46.00
49373;DHT22;44113;38.408;-122.974;2022-11-11T03:29:06;23.30;46.10
49373;DHT22;44113;38.408;-122.974;2022-11-11T03:31:32;23.30;46.20
49373;DHT22;44113;38.408;-122.974;2022-11-11T03:34:00;23.20;46.10
49373;DHT22;44113;38.408;-122.974;2022-11-11T03:36:47;23.20;46.10
49373;DHT22;44113;38.408;-122.974;2022-11-11T03:39:32;23.20;46.10
49373;DHT22;44113;38.408;-122.974;2022-11-11T03:41:58;23.20;46.00
49373;DHT22;44113;38.408;-122.974;2022-11-11T03:44:25;23.20;46.00
49373;DHT22;44113;38.408;-122.974;2022-11-11T03:46:54;23.10;46.10
49373;DHT22;44113;38.408;-122.974;2022-11-11T03:49:21;23.10;46.30
49373;DHT22;44113;38.408;-122.974;2022-11-11T03:51:47;23.00;46.20
49373;DHT22;44113;38.408;-122.974;2022-11-11T03:54:14;23.00;46.20
49373;DHT22;44113;38.408;-122.974;2022-11-11T03:56:40;23.00;46.30
49373;DHT22;44113;38.408;-122.974;2022-11-11T03:59:07;22.90;46.40
49373;DHT22;44113;38.408;-122.974;2022-11-11T04:01:33;23.00;46.40
49373;DHT22;44113;38.408;-122.974;2022-11-11T04:04:19;23.20;46.50
49373;DHT22;44113;38.408;-122.974;2022-11-11T04:07:03;23.80;45.90
49373;DHT22;44113;38.408;-122.974;2022-11-11T04:09:48;24.40;44.70
49373;DHT22;44113;38.408;-122.974;2022-11-11T04:12:34;24.80;43.90
49373;DHT22;44113;38.408;-122.974;2022-11-11T04:15:21;25.10;43.30
49373;DHT22;44113;38.408;-122.974;2022-11-11T04:18:06;25.40;42.80
49373;DHT22;44113;38.408;-122.974;2022-11-11T04:20:32;25.50;42.40
49373;DHT22;44113;38.408;-122.974;2022-11-11T04:23:18;25.60;42.30
49373;DHT22;44113;38.408;-122.974;2022-11-11T04:25:44;25.70;42.10
49373;DHT22;44113;38.408;-122.974;2022-11-11T04:28:14;25.70;42.00
49373;DHT22;44113;38.408;-122.974;2022-11-11T04:31:00;25.80;42.00
49373;DHT22;44113;38.408;-122.974;2022-11-11T04:33:26;25.80;41.80
49373;DHT22;44113;38.408;-122.974;2022-11-11T04:35:53;25.80;41.70
49373;DHT22;44113;38.408;-122.974;2022-11-11T04:38:19;25.90;41.70
49373;DHT22;44113;38.408;-122.974;2022-11-11T04:41:04;25.80;41.60
49373;DHT22;44113;38.408;-122.974;2022-11-11T04:43:33;25.90;41.70
49373;DHT22;44113;38.408;-122.974;2022-11-11T04:46:22;25.90;41.70
49373;DHT22;44113;38.408;-122.974;2022-11-11T04:48:49;25.80;41.70
49373;DHT22;44113;38.408;-122.974;2022-11-11T04:51:16;25.80;41.80
49373;DHT22;44113;38.408;-122.974;2022-11-11T04:53:42;25.70;41.80
49373;DHT22;44113;38.408;-122.974;2022-11-11T04:56:09;25.70;41.90
49373;DHT22;44113;38.408;-122.974;2022-11-11T04:58:54;25.60;42.00
49373;DHT22;44113;38.408;-122.974;2022-11-11T05:01:41;25.60;42.10
49373;DHT22;44113;38.408;-122.974;2022-11-11T05:04:25;25.50;42.10
49373;DHT22;44113;38.408;-122.974;2022-11-11T05:06:53;25.50;42.20
49373;DHT22;44113;38.408;-122.974;2022-11-11T05:09:37;25.40;42.30
49373;DHT22;44113;38.408;-122.974;2022-11-11T05:12:05;25.40;42.40
49373;DHT22;44113;38.408;-122.974;2022-11-11T05:14:31;25.30;42.40
49373;DHT22;44113;38.408;-122.974;2022-11-11T05:17:18;25.30;42.50
49373;DHT22;44113;38.408;-122.974;2022-11-11T05:20:03;25.30;42.60
49373;DHT22;44113;38.408;-122.974;2022-11-11T05:22:49;25.30;42.60
49373;DHT22;44113;38.408;-122.974;2022-11-11T05:25:15;25.30;42.50
49373;DHT22;44113;38.408;-122.974;2022-11-11T05:27:52;25.30;42.50
49373;DHT22;44113;38.408;-122.974;2022-11-11T05:30:20;25.40;42.50
49373;DHT22;44113;38.408;-122.974;2022-11-11T05:32:47;25.30;42.50
49373;DHT22;44113;38.408;-122.974;2022-11-11T05:35:15;25.40;42.50
49373;DHT22;44113;38.408;-122.974;2022-11-11T05:37:42;25.40;42.50
49373;DHT22;44113;38.408;-122.974;2022-11-11T05:40:30;25.40;42.50
49373;DHT22;44113;38.408;-122.974;2022-11-11T05:42:57;25.40;42.50
49373;DHT22;44113;38.408;-122.974;2022-11-11T05:45:23;25.50;42.50
49373;DHT22;44113;38.408;-122.974;2022-11-11T05:47:51;25.50;42.60
49373;DHT22;44113;38.408;-122.974;2022-11-11T05:50:17;25.50;42.90
49373;DHT22;44113;38.408;-122.974;2022-11-11T05:52:48;25.50;43.40
49373;DHT22;44113;38.408;-122.974;2022-11-11T05:55:15;25.50;43.70
49373;DHT22;44113;38.408;-122.974;2022-11-11T05:57:42;25.60;43.90
49373;DHT22;44113;38.408;-122.974;2022-11-11T06:00:09;25.70;44.00
49373;DHT22;44113;38.408;-122.974;2022-11-11T06:02:36;25.80;44.20
49373;DHT22;44113;38.408;-122.974;2022-11-11T06:05:04;25.90;44.20
49373;DHT22;44113;38.408;-122.974;2022-11-11T06:07:33;26.00;44.20
49373;DHT22;44113;38.408;-122.974;2022-11-11T06:09:59;26.00;44.30
49373;DHT22;44113;38.408;-122.974;2022-11-11T06:12:45;26.10;44.30
49373;DHT22;44113;38.408;-122.974;2022-11-11T06:15:30;26.20;44.30
49373;DHT22;44113;38.408;-122.974;2022-11-11T06:17:59;26.20;44.20
49373;DHT22;44113;38.408;-122.974;2022-11-11T06:20:26;26.30;44.20
49373;DHT22;44113;38.408;-122.974;2022-11-11T06:22:53;26.30;44.10
49373;DHT22;44113;38.408;-122.974;2022-11-11T06:25:27;26.30;44.00
49373;DHT22;44113;38.408;-122.974;2022-11-11T06:28:14;26.30;44.00
49373;DHT22;44113;38.408;-122.974;2022-11-11T06:30:41;26.30;43.90
49373;DHT22;44113;38.408;-122.974;2022-11-11T06:33:09;26.40;43.80
49373;DHT22;44113;38.408;-122.974;2022-11-11T06:35:42;26.40;43.70
49373;DHT22;44113;38.408;-122.974;2022-11-11T06:38:09;26.50;43.70
49373;DHT22;44113;38.408;-122.974;2022-11-11T06:40:35;26.50;43.50
49373;DHT22;44113;38.408;-122.974;2022-11-11T06:43:02;26.60;43.40
49373;DHT22;44113;38.408;-122.974;2022-11-11T06:45:29;26.70;43.30
49373;DHT22;44113;38.408;-122.974;2022-11-11T06:47:58;26.80;43.00
49373;DHT22;44113;38.408;-122.974;2022-11-11T06:50:25;26.90;42.80
49373;DHT22;44113;38.408;-122.974;2022-11-11T06:52:51;27.00;42.70
49373;DHT22;44113;38.408;-122.974;2022-11-11T06:55:18;27.10;42.60
49373;DHT22;44113;38.408;-122.974;2022-11-11T06:57:45;27.20;42.60
49373;DHT22;44113;38.408;-122.974;2022-11-11T07:00:12;27.20;42.50
49373;DHT22;44113;38.408;-122.974;2022-11-11T07:02:39;27.30;42.40
49373;DHT22;44113;38.408;-122.974;2022-11-11T07:05:06;27.30;42.30
49373;DHT22;44113;38.408;-122.974;2022-11-11T07:07:32;27.30;42.20
49373;DHT22;44113;38.408;-122.974;2022-11-11T07:09:59;27.30;42.10
49373;DHT22;44113;38.408;-122.974;2022-11-11T07:12:26;27.40;42.10
49373;DHT22;44113;38.408;-122.974;2022-11-11T07:14:52;27.30;42.10
49373;DHT22;44113;38.408;-122.974;2022-11-11T07:17:20;27.30;42.10
49373;DHT22;44113;38.408;-122.974;2022-11-11T07:19:46;27.30;42.10
49373;DHT22;44113;38.408;-122.974;2022-11-11T07:22:13;27.20;42.10
49373;DHT22;44113;38.408;-122.974;2022-11-11T07:24:39;27.20;42.10
49373;DHT22;44113;38.408;-122.974;2022-11-11T07:27:07;27.10;42.10
49373;DHT22;44113;38.408;-122.974;2022-11-11T07:29:33;27.10;42.10
49373;DHT22;44113;38.408;-122.974;2022-11-11T07:32:00;27.10;42.10
49373;DHT22;44113;38.408;-122.974;2022-11-11T07:34:27;27.00;42.20
49373;DHT22;44113;38.408;-122.974;2022-11-11T07:36:54;27.00;42.10
49373;DHT22;44113;38.408;-122.974;2022-11-11T07:39:21;26.90;42.00
49373;DHT22;44113;38.408;-122.974;2022-11-11T07:41:47;26.90;42.10
49373;DHT22;44113;38.408;-122.974;2022-11-11T07:44:14;26.80;42.00
49373;DHT22;44113;38.408;-122.974;2022-11-11T07:46:40;26.80;42.10
49373;DHT22;44113;38.408;-122.974;2022-11-11T07:49:07;26.70;42.10
49373;DHT22;44113;38.408;-122.974;2022-11-11T07:51:34;26.70;42.20
49373;DHT22;44113;38.408;-122.974;2022-11-11T07:54:00;26.60;42.10
49373;DHT22;44113;38.408;-122.974;2022-11-11T07:56:27;26.50;42.30
49373;DHT22;44113;38.408;-122.974;2022-11-11T07:58:54;26.50;42.60
49373;DHT22;44113;38.408;-122.974;2022-11-11T08:01:20;26.40;42.60
49373;DHT22;44113;38.408;-122.974;2022-11-11T08:03:47;26.40;42.60
49373;DHT22;44113;38.408;-122.974;2022-11-11T08:06:20;26.40;42.70
49373;DHT22;44113;38.408;-122.974;2022-11-11T08:08:48;26.30;42.80
49373;DHT22;44113;38.408;-122.974;2022-11-11T08:11:16;26.30;42.80
49373;DHT22;44113;38.408;-122.974;2022-11-11T08:14:02;26.30;43.30
49373;DHT22;44113;38.408;-122.974;2022-11-11T08:16:29;26.30;42.80
49373;DHT22;44113;38.408;-122.974;2022-11-11T08:18:57;26.30;42.90
49373;DHT22;44113;38.408;-122.974;2022-11-11T08:21:24;26.30;43.00
49373;DHT22;44113;38.408;-122.974;2022-11-11T08:23:51;26.20;43.00
49373;DHT22;44113;38.408;-122.974;2022-11-11T08:26:20;26.20;43.10
49373;DHT22;44113;38.408;-122.974;2022-11-11T08:28:47;26.10;43.20
49373;DHT22;44113;38.408;-122.974;2022-11-11T08:31:14;26.10;43.30
49373;DHT22;44113;38.408;-122.974;2022-11-11T08:33:40;26.00;43.40
49373;DHT22;44113;38.408;-122.974;2022-11-11T08:36:07;26.00;43.40
49373;DHT22;44113;38.408;-122.974;2022-11-11T08:38:36;25.90;43.40
49373;DHT22;44113;38.408;-122.974;2022-11-11T08:41:05;25.90;43.60
49373;DHT22;44113;38.408;-122.974;2022-11-11T08:43:33;25.90;43.60
49373;DHT22;44113;38.408;-122.974;2022-11-11T08:46:01;25.90;43.70
49373;DHT22;44113;38.408;-122.974;2022-11-11T08:48:30;25.80;43.80
49373;DHT22;44113;38.408;-122.974;2022-11-11T08:50:57;25.70;43.70
49373;DHT22;44113;38.408;-122.974;2022-11-11T08:53:25;25.70;43.70
49373;DHT22;44113;38.408;-122.974;2022-11-11T08:55:52;25.60;44.00
49373;DHT22;44113;38.408;-122.974;2022-11-11T08:58:19;25.60;43.90
49373;DHT22;44113;38.408;-122.974;2022-11-11T09:00:46;25.60;44.10
49373;DHT22;44113;38.408;-122.974;2022-11-11T09:03:13;25.70;44.20
49373;DHT22;44113;38.408;-122.974;2022-11-11T09:05:40;25.90;44.20
49373;DHT22;44113;38.408;-122.974;2022-11-11T09:08:07;26.30;43.80
49373;DHT22;44113;38.408;-122.974;2022-11-11T09:10:35;26.70;43.20
49373;DHT22;44113;38.408;-122.974;2022-11-11T09:13:02;27.00;42.60
49373;DHT22;44113;38.408;-122.974;2022-11-11T09:15:29;27.30;42.20
49373;DHT22;44113;38.408;-122.974;2022-11-11T09:17:56;27.50;41.80
49373;DHT22;44113;38.408;-122.974;2022-11-11T09:20:23;27.70;41.50
49373;DHT22;44113;38.408;-122.974;2022-11-11T09:22:50;27.80;41.30
49373;DHT22;44113;38.408;-122.974;2022-11-11T09:25:18;27.90;41.10
49373;DHT22;44113;38.408;-122.974;2022-11-11T09:27:53;28.00;40.90
49373;DHT22;44113;38.408;-122.974;2022-11-11T09:30:23;28.10;40.80
49373;DHT22;44113;38.408;-122.974;2022-11-11T09:32:50;28.10;40.60
49373;DHT22;44113;38.408;-122.974;2022-11-11T09:35:17;28.10;40.60
49373;DHT22;44113;38.408;-122.974;2022-11-11T09:37:57;28.10;40.70
49373;DHT22;44113;38.408;-122.974;2022-11-11T09:40:26;28.10;40.70
49373;DHT22;44113;38.408;-122.974;2022-11-11T09:43:09;28.10;40.60
49373;DHT22;44113;38.408;-122.974;2022-11-11T09:46:00;28.10;40.70
49373;DHT22;44113;38.408;-122.974;2022-11-11T09:50:58;28.10;40.70
49373;DHT22;44113;38.408;-122.974;2022-11-11T09:53:34;28.10;40.80
49373;DHT22;44113;38.408;-122.974;2022-11-11T09:56:06;28.00;40.80
49373;DHT22;44113;38.408;-122.974;2022-11-11T09:58:57;28.00;40.80
49373;DHT22;44113;38.408;-122.974;2022-11-11T10:01:32;28.00;40.80
49373;DHT22;44113;38.408;-122.974;2022-11-11T10:04:44;28.10;40.80
49373;DHT22;44113;38.408;-122.974;2022-11-11T10:12:55;28.50;40.40
49373;DHT22;44113;38.408;-122.974;2022-11-11T10:15:27;28.60;40.10
49373;DHT22;44113;38.408;-122.974;2022-11-11T10:20:47;28.90;39.70
49373;DHT22;44113;38.408;-122.974;2022-11-11T10:23:16;29.00;39.60
49373;DHT22;44113;38.408;-122.974;2022-11-11T10:25:53;29.10;40.20
49373;DHT22;44113;38.408;-122.974;2022-11-11T10:28:25;29.10;39.40
49373;DHT22;44113;38.408;-122.974;2022-11-11T10:30:53;29.10;39.30
49373;DHT22;44113;38.408;-122.974;2022-11-11T10:33:45;29.20;39.30
49373;DHT22;44113;38.408;-122.974;2022-11-11T10:36:17;29.20;39.30
49373;DHT22;44113;38.408;-122.974;2022-11-11T10:38:58;29.20;39.20
49373;DHT22;44113;38.408;-122.974;2022-11-11T10:43:57;29.10;39.30
49373;DHT22;44113;38.408;-122.974;2022-11-11T10:46:48;29.10;39.30
49373;DHT22;44113;38.408;-122.974;2022-11-11T10:49:19;29.10;39.40
49373;DHT22;44113;38.408;-122.974;2022-11-11T10:52:15;29.00;39.30
49373;DHT22;44113;38.408;-122.974;2022-11-11T10:55:03;29.00;39.40
49373;DHT22;44113;38.408;-122.974;2022-11-11T11:00:06;28.90;39.50
49373;DHT22;44113;38.408;-122.974;2022-11-11T11:03:04;28.90;39.50
49373;DHT22;44113;38.408;-122.974;2022-11-11T11:08:28;28.80;39.60
49373;DHT22;44113;38.408;-122.974;2022-11-11T11:11:08;28.70;39.60
49373;DHT22;44113;38.408;-122.974;2022-11-11T11:13:47;28.70;39.70
49373;DHT22;44113;38.408;-122.974;2022-11-11T11:16:19;28.60;39.80
49373;DHT22;44113;38.408;-122.974;2022-11-11T11:19:16;28.60;39.90
49373;DHT22;44113;38.408;-122.974;2022-11-11T11:22:00;28.50;39.90
49373;DHT22;44113;38.408;-122.974;2022-11-11T11:24:29;28.50;39.90
49373;DHT22;44113;38.408;-122.974;2022-11-11T11:27:02;28.50;40.00
49373;DHT22;44113;38.408;-122.974;2022-11-11T11:34:51;28.30;40.10
49373;DHT22;44113;38.408;-122.974;2022-11-11T11:37:19;28.30;40.30
49373;DHT22;44113;38.408;-122.974;2022-11-11T11:39:47;28.30;40.30
49373;DHT22;44113;38.408;-122.974;2022-11-11T11:44:54;28.10;40.40
49373;DHT22;44113;38.408;-122.974;2022-11-11T11:47:42;28.10;40.50
49373;DHT22;44113;38.408;-122.974;2022-11-11T11:50:47;28.00;40.60
49373;DHT22;44113;38.408;-122.974;2022-11-11T11:56:11;27.90;40.70
49373;DHT22;44113;38.408;-122.974;2022-11-11T12:09:49;27.60;41.00
49373;DHT22;44113;38.408;-122.974;2022-11-11T12:12:50;27.50;41.10
49373;DHT22;44113;38.408;-122.974;2022-11-11T12:21:16;27.30;41.50
49373;DHT22;44113;38.408;-122.974;2022-11-11T12:27:06;27.20;41.50
49373;DHT22;44113;38.408;-122.974;2022-11-11T13:00:41;26.40;42.10
49373;DHT22;44113;38.408;-122.974;2022-11-11T13:12:01;26.20;42.30
49373;DHT22;44113;38.408;-122.974;2022-11-11T13:17:21;26.10;42.40
49373;DHT22;44113;38.408;-122.974;2022-11-11T13:19:56;26.00;42.40
49373;DHT22;44113;38.408;-122.974;2022-11-11T13:22:30;25.90;42.40
49373;DHT22;44113;38.408;-122.974;2022-11-11T13:25:01;25.90;42.60
49373;DHT22;44113;38.408;-122.974;2022-11-11T13:28:02;25.80;42.60
49373;DHT22;44113;38.408;-122.974;2022-11-11T13:30:45;25.80;42.60
49373;DHT22;44113;38.408;-122.974;2022-11-11T13:33:35;25.70;42.70
49373;DHT22;44113;38.408;-122.974;2022-11-11T13:36:02;25.70;42.80
49373;DHT22;44113;38.408;-122.974;2022-11-11T13:38:38;25.60;42.70
49373;DHT22;44113;38.408;-122.974;2022-11-11T13:41:09;25.60;42.70
49373;DHT22;44113;38.408;-122.974;2022-11-11T13:43:43;25.50;42.80
49373;DHT22;44113;38.408;-122.974;2022-11-11T13:46:45;25.40;43.00
49373;DHT22;44113;38.408;-122.974;2022-11-11T13:52:26;25.40;42.90
49373;DHT22;44113;38.408;-122.974;2022-11-11T13:55:08;25.30;42.90
49373;DHT22;44113;38.408;-122.974;2022-11-11T13:57:46;25.20;42.90
49373;DHT22;44113;38.408;-122.974;2022-11-11T14:02:45;25.10;43.00
49373;DHT22;44113;38.408;-122.974;2022-11-11T14:05:17;25.10;43.00
49373;DHT22;44113;38.408;-122.974;2022-11-11T14:15:36;24.90;43.20
49373;DHT22;44113;38.408;-122.974;2022-11-11T14:20:41;24.80;43.30
49373;DHT22;44113;38.408;-122.974;2022-11-11T14:25:48;24.70;43.50
49373;DHT22;44113;38.408;-122.974;2022-11-11T14:30:55;24.60;43.50
49373;DHT22;44113;38.408;-122.974;2022-11-11T14:33:53;24.50;43.60
49373;DHT22;44113;38.408;-122.974;2022-11-11T14:39:35;24.40;43.70
49373;DHT22;44113;38.408;-122.974;2022-11-11T14:42:04;24.30;43.70
49373;DHT22;44113;38.408;-122.974;2022-11-11T14:49:48;24.20;44.00
49373;DHT22;44113;38.408;-122.974;2022-11-11T14:55:10;24.00;44.20
49373;DHT22;44113;38.408;-122.974;2022-11-11T14:57:46;24.00;44.30
49373;DHT22;44113;38.408;-122.974;2022-11-11T15:00:21;23.90;44.90
49373;DHT22;44113;38.408;-122.974;2022-11-11T15:02:54;23.90;44.50
49373;DHT22;44113;38.408;-122.974;2022-11-11T15:06:17;23.80;44.30
49373;DHT22;44113;38.408;-122.974;2022-11-11T15:08:25;23.80;44.40
49373;DHT22;44113;38.408;-122.974;2022-11-11T15:11:03;23.70;44.70
49373;DHT22;44113;38.408;-122.974;2022-11-11T15:16:33;23.60;44.80
49373;DHT22;44113;38.408;-122.974;2022-11-11T15:22:09;23.50;44.90
49373;DHT22;44113;38.408;-122.974;2022-11-11T15:24:54;23.50;44.90
49373;DHT22;44113;38.408;-122.974;2022-11-11T15:30:16;23.40;44.90
49373;DHT22;44113;38.408;-122.974;2022-11-11T15:32:50;23.40;45.00
49373;DHT22;44113;38.408;-122.974;2022-11-11T15:38:14;23.20;45.10
49373;DHT22;44113;38.408;-122.974;2022-11-11T15:40:52;23.10;45.20
49373;DHT22;44113;38.408;-122.974;2022-11-11T15:43:28;23.10;45.20
49373;DHT22;44113;38.408;-122.974;2022-11-11T15:46:00;23.10;45.30
49373;DHT22;44113;38.408;-122.974;2022-11-11T15:48:43;23.10;45.30
49373;DHT22;44113;38.408;-122.974;2022-11-11T15:51:34;23.00;45.30
49373;DHT22;44113;38.408;-122.974;2022-11-11T15:56:44;23.00;45.50
49373;DHT22;44113;38.408;-122.974;2022-11-11T16:01:43;22.90;45.70
49373;DHT22;44113;38.408;-122.974;2022-11-11T16:04:18;22.80;46.40
49373;DHT22;44113;38.408;-122.974;2022-11-11T16:06:46;22.70;46.00
49373;DHT22;44113;38.408;-122.974;2022-11-11T16:09:17;22.70;46.00
49373;DHT22;44113;38.408;-122.974;2022-11-11T16:11:45;22.70;46.00
49373;DHT22;44113;38.408;-122.974;2022-11-11T16:14:27;22.60;46.10
49373;DHT22;44113;38.408;-122.974;2022-11-11T16:16:59;22.60;46.10
49373;DHT22;44113;38.408;-122.974;2022-11-11T16:19:37;22.50;46.30
49373;DHT22;44113;38.408;-122.974;2022-11-11T16:22:28;22.50;46.40
49373;DHT22;44113;38.408;-122.974;2022-11-11T16:24:56;22.40;46.50
49373;DHT22;44113;38.408;-122.974;2022-11-11T16:27:31;22.40;46.50
49373;DHT22;44113;38.408;-122.974;2022-11-11T16:30:31;22.40;46.50
49373;DHT22;44113;38.408;-122.974;2022-11-11T16:32:59;22.30;46.40
49373;DHT22;44113;38.408;-122.974;2022-11-11T16:37:56;22.20;46.60
49373;DHT22;44113;38.408;-122.974;2022-11-11T16:43:32;22.10;46.90
49373;DHT22;44113;38.408;-122.974;2022-11-11T16:46:07;22.10;46.90
49373;DHT22;44113;38.408;-122.974;2022-11-11T16:48:37;22.10;47.10
49373;DHT22;44113;38.408;-122.974;2022-11-11T16:51:12;22.00;47.00
49373;DHT22;44113;38.408;-122.974;2022-11-11T16:53:49;22.00;47.00
49373;DHT22;44113;38.408;-122.974;2022-11-11T16:56:24;21.90;47.10
49373;DHT22;44113;38.408;-122.974;2022-11-11T16:59:04;21.90;47.20
49373;DHT22;44113;38.408;-122.974;2022-11-11T17:01:43;21.90;47.20
49373;DHT22;44113;38.408;-122.974;2022-11-11T17:04:11;21.80;47.10
49373;DHT22;44113;38.408;-122.974;2022-11-11T17:06:55;21.80;47.20
49373;DHT22;44113;38.408;-122.974;2022-11-11T17:09:35;21.70;47.30
49373;DHT22;44113;38.408;-122.974;2022-11-11T17:12:02;21.80;47.60
49373;DHT22;44113;38.408;-122.974;2022-11-11T17:14:31;21.70;47.40
49373;DHT22;44113;38.408;-122.974;2022-11-11T17:16:59;21.60;47.40
49373;DHT22;44113;38.408;-122.974;2022-11-11T17:19:26;21.60;47.50
49373;DHT22;44113;38.408;-122.974;2022-11-11T17:21:53;21.60;47.50
49373;DHT22;44113;38.408;-122.974;2022-11-11T17:24:20;21.50;47.60
49373;DHT22;44113;38.408;-122.974;2022-11-11T17:26:46;21.50;47.90
49373;DHT22;44113;38.408;-122.974;2022-11-11T17:29:13;21.40;47.70
49373;DHT22;44113;38.408;-122.974;2022-11-11T17:31:40;21.40;47.90
49373;DHT22;44113;38.408;-122.974;2022-11-11T17:34:08;21.40;47.80
49373;DHT22;44113;38.408;-122.974;2022-11-11T17:36:35;21.40;47.90
49373;DHT22;44113;38.408;-122.974;2022-11-11T17:39:01;21.30;47.90
49373;DHT22;44113;38.408;-122.974;2022-11-11T17:41:28;21.30;47.80
49373;DHT22;44113;38.408;-122.974;2022-11-11T17:43:55;21.30;48.00
49373;DHT22;44113;38.408;-122.974;2022-11-11T17:46:23;21.20;48.00
49373;DHT22;44113;38.408;-122.974;2022-11-11T17:48:52;21.20;48.10
49373;DHT22;44113;38.408;-122.974;2022-11-11T17:51:21;21.10;48.00
49373;DHT22;44113;38.408;-122.974;2022-11-11T17:53:50;21.10;48.20
49373;DHT22;44113;38.408;-122.974;2022-11-11T17:56:18;21.10;48.40